Time;durP1;ratioP1;P1;durP2;ratioP2;P2;SDS_P1;SDS_P2;PMS_P1;PMS_P2;Temp;Humidity;BMP_temperature;BMP_pressure;BME280_temperature;BME280_humidity;BME280_pressure;Samples;Min_cycle;Max_cycle;Signal;HPM_P1;HPM_P2
2021/11/27 00:01:51;;;;;;;;;;;;;;;;;;4991440;28;19922;-76
2021/11/27 00:04:17;;;;;;;;;;;;;;;;;;4980737;28;19926;-75
2021/11/27 00:06:43;;;;;;;;;;;;;;;;;;4973841;28;19960;-75
2021/11/27 00:09:10;;;;;;;;;;;;;;;;;;4977752;28;20006;-77
2021/11/27 00:11:36;;;;;;;;;;;;;;;;;;4993001;28;20251;-76
2021/11/27 00:14:02;;;;;;;;;;;;;;;;;;4993927;28;20384;-76
2021/11/27 00:16:28;;;;;;;;;;;;;;;;;;4976373;28;20431;-76
2021/11/27 00:18:54;;;;;;;;;;;;;;;;;;4982358;28;19998;-76
2021/11/27 00:21:20;;;;;;;;;;;;;;;;;;4976605;28;20392;-76
2021/11/27 00:23:46;;;;;;;;;;;;;;;;;;4972923;28;20005;-76
2021/11/27 00:26:12;;;;;;;;;;;;;;;;;;4993873;28;20001;-76
2021/11/27 00:28:38;;;;;;;;;;;;;;;;;;4989754;28;19965;-76
2021/11/27 00:31:04;;;;;;;;;;;;;;;;;;4988232;28;19941;-76
2021/11/27 00:33:30;;;;;;;;;;;;;;;;;;4991542;28;19921;-77
2021/11/27 00:35:56;;;;;;;;;;;;;;;;;;4976283;28;19953;-76
2021/11/27 00:38:22;;;;;;;;;;;;;;;;;;4979784;28;19945;-76
2021/11/27 00:40:48;;;;;;;;;;;;;;;;;;4997991;28;19964;-76
2021/11/27 00:43:14;;;;;;;;;;;;;;;;;;4993625;28;20016;-76
2021/11/27 00:45:40;;;;;;;;;;;;;;;;;;4993674;28;19922;-76
2021/11/27 00:48:06;;;;;;;;;;;;;;;;;;4991058;28;20008;-76
2021/11/27 00:50:32;;;;;;;;;;;;;;;;;;4992262;28;19954;-76
2021/11/27 00:52:58;;;;;;;;;;;;;;;;;;4980365;28;19953;-76
2021/11/27 00:55:24;;;;;;;;;;;;;;;;;;4991357;28;19913;-76
2021/11/27 00:57:50;;;;;;;;;;;;;;;;;;4988968;28;20217;-76
2021/11/27 01:00:16;;;;;;;;;;;;;;;;;;4988400;28;19913;-76
2021/11/27 01:02:42;;;;;;;;;;;;;;;;;;4993472;28;19945;-76
2021/11/27 01:05:08;;;;;;;;;;;;;;;;;;4989807;28;19969;-76
2021/11/27 01:07:33;;;;;;;;;;;;;;;;;;4974301;28;19920;-76
2021/11/27 01:09:59;;;;;;;;;;;;;;;;;;4990222;28;20001;-77
2021/11/27 01:12:25;;;;;;;;;;;;;;;;;;4971617;28;19976;-76
2021/11/27 01:14:51;;;;;;;;;;;;;;;;;;4993318;28;19957;-75
2021/11/27 01:17:17;;;;;;;;;;;;;;;;;;4990631;28;19957;-76
2021/11/27 01:19:43;;;;;;;;;;;;;;;;;;4988812;28;19961;-76
2021/11/27 01:22:09;;;;;;;;;;;;;;;;;;4988861;28;19977;-76
2021/11/27 01:24:35;;;;;;;;;;;;;;;;;;4990868;28;19953;-76
2021/11/27 01:27:01;;;;;;;;;;;;;;;;;;4986433;28;19946;-76
2021/11/27 01:29:27;;;;;;;;;;;;;;;;;;4972218;28;21037;-77
2021/11/27 01:31:53;;;;;;;;;;;;;;;;;;4992368;28;19949;-76
2021/11/27 01:34:19;;;;;;;;;;;;;;;;;;4975054;28;19965;-76
2021/11/27 01:36:45;;;;;;;;;;;;;;;;;;4975194;28;19917;-76
2021/11/27 01:39:11;;;;;;;;;;;;;;;;;;4990199;28;19925;-76
2021/11/27 01:41:37;;;;;;;;;;;;;;;;;;4988589;28;20099;-76
2021/11/27 01:44:03;;;;;;;;;;;;;;;;;;4999633;28;19922;-76
2021/11/27 01:46:29;;;;;;;;;;;;;;;;;;4991565;28;19929;-76
2021/11/27 01:48:55;;;;;;;;;;;;;;;;;;4984199;28;20016;-76
2021/11/27 01:51:20;;;;;;;;;;;;;;;;;;4968133;28;19914;-77
2021/11/27 01:53:46;;;;;;;;;;;;;;;;;;4986679;28;19922;-77
2021/11/27 01:56:13;;;;;;;;;;;;;;;;;;4988937;28;19968;-76
2021/11/27 01:58:38;;;;;;;;;;;;;;;;;;4989346;28;19918;-77
2021/11/27 02:01:04;;;;;;;;;;;;;;;;;;4989667;28;20442;-76
2021/11/27 02:03:30;;;;;;;;;;;;;;;;;;4993929;28;19967;-77
2021/11/27 02:05:56;;;;;;;;;;;;;;;;;;4990287;28;19960;-76
2021/11/27 02:08:22;;;;;;;;;;;;;;;;;;4986408;28;19981;-76
2021/11/27 02:10:48;;;;;;;;;;;;;;;;;;4990877;28;20041;-77
2021/11/27 02:13:14;;;;;;;;;;;;;;;;;;4988119;28;19956;-77
2021/11/27 02:15:40;;;;;;;;;;;;;;;;;;4988538;28;19926;-77
2021/11/27 02:18:06;;;;;;;;;;;;;;;;;;4986576;28;19957;-77
2021/11/27 02:20:32;;;;;;;;;;;;;;;;;;4973493;28;19975;-77
2021/11/27 02:22:58;;;;;;;;;;;;;;;;;;4990756;28;19914;-77
2021/11/27 02:25:24;;;;;;;;;;;;;;;;;;4965971;28;19914;-77
2021/11/27 02:27:50;;;;;;;;;;;;;;;;;;4979015;28;20011;-77
2021/11/27 02:30:16;;;;;;;;;;;;;;;;;;4999912;28;19913;-77
2021/11/27 02:32:42;;;;;;;;;;;;;;;;;;4991026;28;19913;-77
2021/11/27 02:35:08;;;;;;;;;;;;;;;;;;4991430;28;19933;-77
2021/11/27 02:37:33;;;;;;;;;;;;;;;;;;4990663;28;20396;-77
2021/11/27 02:39:59;;;;;;;;;;;;;;;;;;4988969;28;20317;-77
2021/11/27 02:42:25;;;;;;;;;;;;;;;;;;4983307;28;20416;-77
2021/11/27 02:44:51;;;;;;;;;;;;;;;;;;4990924;28;20333;-77
2021/11/27 02:47:17;;;;;;;;;;;;;;;;;;4985942;28;20278;-77
2021/11/27 02:49:43;;;;;;;;;;;;;;;;;;4988701;28;19944;-77
2021/11/27 02:52:09;;;;;;;;;;;;;;;;;;4992753;28;20336;-77
2021/11/27 02:54:35;;;;;;;;;;;;;;;;;;4990319;28;19992;-77
2021/11/27 02:57:01;;;;;;;;;;;;;;;;;;4992920;28;20305;-77
2021/11/27 02:59:28;;;;;;;;;;;;;;;;;;4977645;28;19953;-77
2021/11/27 03:01:54;;;;;;;;;;;;;;;;;;4989209;28;19918;-77
2021/11/27 03:04:20;;;;;;;;;;;;;;;;;;4978352;28;19918;-77
2021/11/27 03:06:46;;;;;;;;;;;;;;;;;;4988702;28;19996;-77
2021/11/27 03:09:12;;;;;;;;;;;;;;;;;;4986877;28;19948;-77
2021/11/27 03:11:38;;;;;;;;;;;;;;;;;;4995917;28;19961;-77
2021/11/27 03:14:03;;;;;;;;;;;;;;;;;;4987785;28;19952;-77
2021/11/27 03:16:29;;;;;;;;;;;;;;;;;;4989703;28;20004;-77
2021/11/27 03:18:55;;;;;;;;;;;;;;;;;;4985176;28;19941;-77
2021/11/27 03:21:21;;;;;;;;;;;;;;;;;;4989493;28;19961;-77
2021/11/27 03:23:47;;;;;;;;;;;;;;;;;;4990748;28;19914;-77
2021/11/27 03:26:13;;;;;;;;;;;;;;;;;;4989381;28;19959;-77
2021/11/27 03:28:39;;;;;;;;;;;;;;;;;;4973655;28;20396;-77
2021/11/27 03:31:05;;;;;;;;;;;;;;;;;;4990349;28;19913;-77
2021/11/27 03:33:31;;;;;;;;;;;;;;;;;;4973711;28;20008;-77
2021/11/27 03:35:57;;;;;;;;;;;;;;;;;;4989672;28;20403;-77
2021/11/27 03:38:24;;;;;;;;;;;;;;;;;;4969480;28;20349;-77
2021/11/27 03:40:49;;;;;;;;;;;;;;;;;;4989129;28;19972;-77
2021/11/27 03:43:15;;;;;;;;;;;;;;;;;;4990133;28;20380;-77
2021/11/27 03:45:41;;;;;;;;;;;;;;;;;;4989283;28;20443;-77
2021/11/27 03:48:07;;;;;;;;;;;;;;;;;;4986391;28;20384;-77
2021/11/27 03:50:33;;;;;;;;;;;;;;;;;;4990940;28;20411;-77
2021/11/27 03:52:59;;;;;;;;;;;;;;;;;;4988565;28;20055;-77
2021/11/27 03:55:25;;;;;;;;;;;;;;;;;;4983470;28;19950;-77
2021/11/27 03:57:51;;;;;;;;;;;;;;;;;;4986669;28;20692;-77
2021/11/27 04:00:17;;;;;;;;;;;;;;;;;;4977013;28;20341;-77
2021/11/27 04:02:43;;;;;;;;;;;;;;;;;;4990720;28;19957;-77
2021/11/27 04:05:09;;;;;;;;;;;;;;;;;;4988007;28;19917;-77
2021/11/27 04:07:35;;;;;;;;;;;;;;;;;;4995473;28;19949;-77
2021/11/27 04:10:01;;;;;;;;;;;;;;;;;;4984743;28;19996;-77
2021/11/27 04:12:27;;;;;;;;;;;;;;;;;;4991887;28;20308;-77
2021/11/27 04:14:53;;;;;;;;;;;;;;;;;;4979887;28;20399;-77
2021/11/27 04:17:18;;;;;;;;;;;;;;;;;;4990804;28;20417;-77
2021/11/27 04:19:44;;;;;;;;;;;;;;;;;;4986200;28;20384;-77
2021/11/27 04:22:10;;;;;;;;;;;;;;;;;;4990471;28;20899;-77
2021/11/27 04:24:38;;;;;;;;;;;;;;;;;;4990500;28;19914;-77
2021/11/27 04:27:05;;;;;;;;;;;;;;;;;;4988639;28;19914;-77
2021/11/27 04:29:31;;;;;;;;;;;;;;;;;;4989523;28;19913;-77
2021/11/27 04:31:57;;;;;;;;;;;;;;;;;;4995669;28;20016;-77
2021/11/27 04:34:23;;;;;;;;;;;;;;;;;;4986340;28;20008;-77
2021/11/27 04:36:49;;;;;;;;;;;;;;;;;;4991527;28;19941;-77
2021/11/27 04:39:15;;;;;;;;;;;;;;;;;;4966927;28;19980;-77
2021/11/27 04:41:41;;;;;;;;;;;;;;;;;;4971366;28;19957;-77
2021/11/27 04:44:07;;;;;;;;;;;;;;;;;;4994050;28;19963;-77
2021/11/27 04:46:33;;;;;;;;;;;;;;;;;;4994292;28;19910;-77
2021/11/27 04:48:59;;;;;;;;;;;;;;;;;;4984701;28;20000;-76
2021/11/27 04:51:24;;;;;;;;;;;;;;;;;;5000568;28;19945;-75
2021/11/27 04:53:50;;;;;;;;;;;;;;;;;;4992260;28;19980;-77
2021/11/27 04:56:17;;;;;;;;;;;;;;;;;;4993567;28;19971;-76
2021/11/27 04:58:43;;;;;;;;;;;;;;;;;;4989687;28;20353;-77
2021/11/27 05:01:09;;;;;;;;;;;;;;;;;;4988180;28;19949;-77
2021/11/27 05:03:35;;;;;;;;;;;;;;;;;;5000365;28;19964;-76
2021/11/27 05:06:01;;;;;;;;;;;;;;;;;;5001549;28;19937;-76
2021/11/27 05:08:27;;;;;;;;;;;;;;;;;;4991052;28;20009;-76
2021/11/27 05:10:53;;;;;;;;;;;;;;;;;;4987920;28;19926;-76
2021/11/27 05:13:19;;;;;;;;;;;;;;;;;;4975781;28;19956;-76
2021/11/27 05:15:45;;;;;;;;;;;;;;;;;;4992037;28;20325;-76
2021/11/27 05:18:11;;;;;;;;;;;;;;;;;;4991228;28;19960;-77
2021/11/27 05:20:37;;;;;;;;;;;;;;;;;;4993426;28;20429;-76
2021/11/27 05:23:03;;;;;;;;;;;;;;;;;;4990644;28;19949;-76
2021/11/27 05:25:29;;;;;;;;;;;;;;;;;;4989851;28;20005;-76
2021/11/27 05:27:55;;;;;;;;;;;;;;;;;;4997644;28;20289;-76
2021/11/27 05:30:21;;;;;;;;;;;;;;;;;;4985047;28;19937;-75
2021/11/27 05:33:05;;;;;;;;;;;;;;;;;;4991419;28;20280;-76
2021/11/27 05:35:31;;;;;;;;;;;;;;;;;;4991036;28;19963;-76
2021/11/27 05:37:57;;;;;;;;;;;;;;;;;;4984024;28;20000;-76
2021/11/27 05:40:23;;;;;;;;;;;;;;;;;;4988774;28;19917;-75
2021/11/27 05:42:49;;;;;;;;;;;;;;;;;;4998747;28;19914;-76
2021/11/27 05:45:15;;;;;;;;;;;;;;;;;;4996331;28;19910;-76
2021/11/27 05:47:41;;;;;;;;;;;;;;;;;;4984979;28;20633;-74
2021/11/27 05:50:07;;;;;;;;;;;;;;;;;;4983411;28;19910;-75
2021/11/27 05:52:33;;;;;;;;;;;;;;;;;;4991737;28;20357;-75
2021/11/27 05:54:59;;;;;;;;;;;;;;;;;;4989490;28;20327;-76
2021/11/27 05:57:26;;;;;;;;;;;;;;;;;;4986794;28;19914;-75
2021/11/27 05:59:52;;;;;;;;;;;;;;;;;;4987047;28;19910;-74
2021/11/27 06:02:18;;;;;;;;;;;;;;;;;;4990192;28;19917;-74
2021/11/27 06:04:45;;;;;;;;;;;;;;;;;;4990530;28;19988;-75
2021/11/27 06:07:11;;;;;;;;;;;;;;;;;;4992462;28;19913;-75
2021/11/27 06:09:37;;;;;;;;;;;;;;;;;;4986896;28;19956;-75
2021/11/27 06:12:02;;;;;;;;;;;;;;;;;;4983049;28;20346;-74
2021/11/27 06:14:28;;;;;;;;;;;;;;;;;;4990808;28;20415;-75
2021/11/27 06:16:55;;;;;;;;;;;;;;;;;;4992455;28;20392;-74
2021/11/27 06:19:21;;;;;;;;;;;;;;;;;;4998563;28;19909;-74
2021/11/27 06:21:47;;;;;;;;;;;;;;;;;;4990748;28;19913;-74
2021/11/27 06:24:12;;;;;;;;;;;;;;;;;;4992490;28;20000;-74
2021/11/27 06:26:38;;;;;;;;;;;;;;;;;;4990604;28;19959;-74
2021/11/27 06:29:04;;;;;;;;;;;;;;;;;;4990066;28;19952;-74
2021/11/27 06:31:30;;;;;;;;;;;;;;;;;;4988397;28;20269;-74
2021/11/27 06:33:56;;;;;;;;;;;;;;;;;;4987683;28;19957;-75
2021/11/27 06:36:25;;;;;;;;;;;;;;;;;;4970064;28;19944;-73
2021/11/27 06:38:51;;;;;;;;;;;;;;;;;;4994623;28;19996;-74
2021/11/27 06:41:17;;;;;;;;;;;;;;;;;;4993671;28;19957;-73
2021/11/27 06:43:43;;;;;;;;;;;;;;;;;;4991281;28;19953;-73
2021/11/27 06:46:09;;;;;;;;;;;;;;;;;;4984758;28;19960;-74
2021/11/27 06:48:35;;;;;;;;;;;;;;;;;;4986425;28;19972;-73
2021/11/27 06:51:01;;;;;;;;;;;;;;;;;;4990778;28;19909;-73
2021/11/27 06:53:27;;;;;;;;;;;;;;;;;;4989483;28;20012;-73
2021/11/27 06:55:55;;;;;;;;;;;;;;;;;;4987372;28;20449;-73
2021/11/27 06:58:21;;;;;;;;;;;;;;;;;;4969987;28;19917;-73
2021/11/27 07:00:47;;;;;;;;;;;;;;;;;;4991431;28;20007;-73
2021/11/27 07:03:12;;;;;;;;;;;;;;;;;;4987489;28;20369;-73
2021/11/27 07:05:38;;;;;;;;;;;;;;;;;;4988575;28;19949;-73
2021/11/27 07:08:04;;;;;;;;;;;;;;;;;;4969339;28;19960;-73
2021/11/27 07:10:30;;;;;;;;;;;;;;;;;;4988959;28;19956;-73
2021/11/27 07:12:59;;;;;;;;;;;;;;;;;;4983085;28;19968;-73
2021/11/27 07:15:25;;;;;;;;;;;;;;;;;;4985889;28;20003;-73
2021/11/27 07:17:51;;;;;;;;;;;;;;;;;;4988245;28;20254;-73
2021/11/27 07:20:17;;;;;;;;;;;;;;;;;;4990746;28;19957;-73
2021/11/27 07:22:42;;;;;;;;;;;;;;;;;;4990217;28;19961;-73
2021/11/27 07:25:08;;;;;;;;;;;;;;;;;;4990690;28;20092;-73
2021/11/27 07:27:34;;;;;;;;;;;;;;;;;;4988157;28;19941;-73
2021/11/27 07:30:00;;;;;;;;;;;;;;;;;;4989253;28;19910;-73
2021/11/27 07:32:26;;;;;;;;;;;;;;;;;;4992659;28;19910;-73
2021/11/27 07:34:52;;;;;;;;;;;;;;;;;;4970860;28;19952;-73
2021/11/27 07:37:18;;;;;;;;;;;;;;;;;;4990017;28;20408;-73
2021/11/27 07:39:44;;;;;;;;;;;;;;;;;;4987708;28;20427;-73
2021/11/27 07:42:10;;;;;;;;;;;;;;;;;;4972767;28;20423;-73
2021/11/27 07:44:36;;;;;;;;;;;;;;;;;;4989321;28;20392;-73
2021/11/27 07:47:02;;;;;;;;;;;;;;;;;;4973283;28;19952;-73
2021/11/27 07:49:28;;;;;;;;;;;;;;;;;;4987873;28;19916;-73
2021/11/27 07:51:54;;;;;;;;;;;;;;;;;;4990699;28;20391;-73
2021/11/27 07:54:20;;;;;;;;;;;;;;;;;;4990756;28;19949;-73
2021/11/27 07:56:46;;;;;;;;;;;;;;;;;;4970658;28;20288;-73
2021/11/27 07:59:12;;;;;;;;;;;;;;;;;;4987035;28;19944;-73
2021/11/27 08:01:38;;;;;;;;;;;;;;;;;;4987611;28;20454;-73
2021/11/27 08:04:04;;;;;;;;;;;;;;;;;;4992738;28;19941;-73
2021/11/27 08:06:30;;;;;;;;;;;;;;;;;;4989074;28;19953;-73
2021/11/27 08:08:55;;;;;;;;;;;;;;;;;;4993807;28;19909;-73
2021/11/27 08:11:24;;;;;;;;;;;;;;;;;;4989302;28;19913;-73
2021/11/27 08:13:50;;;;;;;;;;;;;;;;;;4990720;28;19949;-73
2021/11/27 08:16:16;;;;;;;;;;;;;;;;;;4988327;28;19980;-73
2021/11/27 08:18:41;;;;;;;;;;;;;;;;;;4988863;28;19937;-72
2021/11/27 08:21:07;;;;;;;;;;;;;;;;;;4987441;28;19953;-73
2021/11/27 08:23:34;;;;;;;;;;;;;;;;;;4968814;28;19950;-72
2021/11/27 08:26:00;;;;;;;;;;;;;;;;;;4988936;28;20319;-72
2021/11/27 08:28:26;;;;;;;;;;;;;;;;;;4973662;28;19909;-73
2021/11/27 08:30:52;;;;;;;;;;;;;;;;;;4974610;28;20019;-73
2021/11/27 08:33:17;;;;;;;;;;;;;;;;;;4994343;28;19910;-72
2021/11/27 08:35:43;;;;;;;;;;;;;;;;;;4977011;28;19948;-73
2021/11/27 08:38:09;;;;;;;;;;;;;;;;;;4987467;28;19945;-73
2021/11/27 08:40:35;;;;;;;;;;;;;;;;;;4992208;28;20461;-73
2021/11/27 08:43:02;;;;;;;;;;;;;;;;;;4990124;28;20456;-73
2021/11/27 08:45:28;;;;;;;;;;;;;;;;;;4991210;28;20280;-73
2021/11/27 08:47:53;;;;;;;;;;;;;;;;;;4988371;28;19948;-74
2021/11/27 08:50:19;;;;;;;;;;;;;;;;;;4990170;28;19914;-73
2021/11/27 08:52:45;;;;;;;;;;;;;;;;;;4975668;28;20384;-73
2021/11/27 08:55:11;;;;;;;;;;;;;;;;;;4996867;28;19909;-73
2021/11/27 08:57:37;;;;;;;;;;;;;;;;;;4974699;28;19941;-74
2021/11/27 09:00:03;;;;;;;;;;;;;;;;;;4993378;28;19910;-74
2021/11/27 09:02:29;;;;;;;;;;;;;;;;;;4972552;28;19953;-73
2021/11/27 09:04:55;;;;;;;;;;;;;;;;;;4974093;28;19952;-73
2021/11/27 09:07:21;;;;;;;;;;;;;;;;;;4991270;28;19910;-74
2021/11/27 09:09:47;;;;;;;;;;;;;;;;;;4966066;28;20332;-73
2021/11/27 09:12:13;;;;;;;;;;;;;;;;;;4987132;28;19989;-73
2021/11/27 09:14:39;;;;;;;;;;;;;;;;;;4987921;28;19965;-74
2021/11/27 09:17:05;;;;;;;;;;;;;;;;;;4989330;28;20260;-73
2021/11/27 09:19:31;;;;;;;;;;;;;;;;;;4988848;28;19950;-74
2021/11/27 09:21:57;;;;;;;;;;;;;;;;;;4991080;28;19941;-74
2021/11/27 09:24:23;;;;;;;;;;;;;;;;;;4991736;28;19941;-74
2021/11/27 09:26:49;;;;;;;;;;;;;;;;;;4986144;28;20372;-74
2021/11/27 09:29:18;;;;;;;;;;;;;;;;;;4989926;28;20335;-74
2021/11/27 09:31:44;;;;;;;;;;;;;;;;;;4986667;28;20044;-74
2021/11/27 09:34:10;;;;;;;;;;;;;;;;;;4992365;28;20431;-74
2021/11/27 09:36:36;;;;;;;;;;;;;;;;;;4990714;28;19949;-74
2021/11/27 09:39:02;;;;;;;;;;;;;;;;;;4971486;28;19909;-75
2021/11/27 09:41:29;;;;;;;;;;;;;;;;;;4970519;28;20059;-75
2021/11/27 09:43:55;;;;;;;;;;;;;;;;;;4990655;28;20209;-74
2021/11/27 09:46:20;;;;;;;;;;;;;;;;;;4991316;28;20573;-75
2021/11/27 09:48:49;;;;;;;;;;;;;;;;;;4992219;28;19952;-75
2021/11/27 09:51:15;;;;;;;;;;;;;;;;;;4990367;28;20001;-75
2021/11/27 09:53:41;;;;;;;;;;;;;;;;;;4990685;28;20020;-75
2021/11/27 09:56:07;;;;;;;;;;;;;;;;;;4987080;28;19924;-75
2021/11/27 09:58:33;;;;;;;;;;;;;;;;;;4980911;28;19957;-75
2021/11/27 10:00:59;;;;;;;;;;;;;;;;;;4990986;28;19960;-75
2021/11/27 10:03:25;;;;;;;;;;;;;;;;;;4990584;28;19983;-76
2021/11/27 10:05:51;;;;;;;;;;;;;;;;;;4991424;28;19913;-75
2021/11/27 10:08:17;;;;;;;;;;;;;;;;;;4989286;28;19953;-75
2021/11/27 10:10:43;;;;;;;;;;;;;;;;;;4973410;28;19948;-75
2021/11/27 10:13:09;;;;;;;;;;;;;;;;;;4986683;28;20031;-76
2021/11/27 10:15:34;;;;;;;;;;;;;;;;;;4990747;28;19961;-75
2021/11/27 10:18:00;;;;;;;;;;;;;;;;;;4989440;28;19949;-76
2021/11/27 10:20:30;;;;;;;;;;;;;;;;;;4989272;28;20011;-75
2021/11/27 10:22:56;;;;;;;;;;;;;;;;;;4971330;28;19925;-75
2021/11/27 10:25:22;;;;;;;;;;;;;;;;;;4985210;28;19941;-75
2021/11/27 10:27:48;;;;;;;;;;;;;;;;;;4982990;28;19914;-76
2021/11/27 10:30:14;;;;;;;;;;;;;;;;;;4971243;28;20026;-75
2021/11/27 10:32:40;;;;;;;;;;;;;;;;;;4987937;28;19952;-75
2021/11/27 10:35:06;;;;;;;;;;;;;;;;;;4983801;28;20724;-75
2021/11/27 10:37:32;;;;;;;;;;;;;;;;;;4981966;28;19972;-76
2021/11/27 10:39:58;;;;;;;;;;;;;;;;;;4988463;28;20387;-75
2021/11/27 10:42:24;;;;;;;;;;;;;;;;;;4983674;28;20426;-76
2021/11/27 10:44:51;;;;;;;;;;;;;;;;;;4984091;28;20382;-76
2021/11/27 10:47:17;;;;;;;;;;;;;;;;;;4986276;28;19929;-75
2021/11/27 10:49:43;;;;;;;;;;;;;;;;;;4984305;28;19920;-75
2021/11/27 10:52:09;;;;;;;;;;;;;;;;;;4989036;28;19924;-75
2021/11/27 10:54:35;;;;;;;;;;;;;;;;;;4987953;28;19949;-75
2021/11/27 10:57:01;;;;;;;;;;;;;;;;;;4988203;28;19953;-75
2021/11/27 10:59:27;;;;;;;;;;;;;;;;;;4965991;28;19953;-75
2021/11/27 11:01:53;;;;;;;;;;;;;;;;;;4988706;28;19990;-75
2021/11/27 11:04:19;;;;;;;;;;;;;;;;;;4984968;28;19961;-75
2021/11/27 11:06:45;;;;;;;;;;;;;;;;;;4991259;28;19961;-75
2021/11/27 11:09:12;;;;;;;;;;;;;;;;;;4982938;28;19977;-75
2021/11/27 11:11:38;;;;;;;;;;;;;;;;;;4976318;23;19973;-72
2021/11/27 11:14:04;;;;;;;;;;;;;;;;;;5122298;23;19930;-73
2021/11/27 11:16:30;;;;;;;;;;;;;;;;;;4989275;28;19962;-72
2021/11/27 11:18:56;;;;;;;;;;;;;;;;;;4986359;28;19941;-73
2021/11/27 11:21:23;;;;;;;;;;;;;;;;;;4985282;28;20384;-73
2021/11/27 11:23:49;;;;;;;;;;;;;;;;;;4987157;28;19914;-73
2021/11/27 11:26:15;;;;;;;;;;;;;;;;;;4990762;28;20016;-73
2021/11/27 11:28:41;;;;;;;;;;;;;;;;;;4984967;28;19953;-73
2021/11/27 11:31:08;;;;;;;;;;;;;;;;;;4987639;28;20025;-73
2021/11/27 11:33:34;;;;;;;;;;;;;;;;;;4986213;28;20004;-73
2021/11/27 11:36:00;;;;;;;;;;;;;;;;;;4987213;28;19925;-72
2021/11/27 11:38:26;;;;;;;;;;;;;;;;;;4968486;28;20365;-72
2021/11/27 11:40:53;;;;;;;;;;;;;;;;;;4982196;28;19960;-72
2021/11/27 11:43:19;;;;;;;;;;;;;;;;;;4962598;28;19914;-72
2021/11/27 11:45:45;;;;;;;;;;;;;;;;;;4985113;28;20008;-72
2021/11/27 11:48:11;;;;;;;;;;;;;;;;;;4964915;28;19913;-73
2021/11/27 11:50:36;;;;;;;;;;;;;;;;;;4986921;28;19914;-74
2021/11/27 11:53:02;;;;;;;;;;;;;;;;;;4987849;28;19913;-73
2021/11/27 11:55:28;;;;;;;;;;;;;;;;;;4983698;28;20003;-73
2021/11/27 11:57:54;;;;;;;;;;;;;;;;;;4984916;28;19945;-73
2021/11/27 12:00:20;;;;;;;;;;;;;;;;;;4984740;28;19914;-74
2021/11/27 12:02:46;;;;;;;;;;;;;;;;;;4987558;28;19957;-72
2021/11/27 12:05:14;;;;;;;;;;;;;;;;;;4990040;28;20428;-73
2021/11/27 12:07:40;;;;;;;;;;;;;;;;;;4973096;28;23284;-73
2021/11/27 12:10:06;;;;;;;;;;;;;;;;;;4990792;28;19914;-73
2021/11/27 12:12:32;;;;;;;;;;;;;;;;;;4988277;28;19982;-72
2021/11/27 12:14:58;;;;;;;;;;;;;;;;;;4989695;28;19957;-73
2021/11/27 12:17:24;;;;;;;;;;;;;;;;;;4967707;28;20498;-74
2021/11/27 12:19:50;;;;;;;;;;;;;;;;;;4987386;28;19965;-72
2021/11/27 12:22:16;;;;;;;;;;;;;;;;;;4989081;28;19933;-72
2021/11/27 12:24:41;;;;;;;;;;;;;;;;;;4988276;28;19961;-73
2021/11/27 12:27:07;;;;;;;;;;;;;;;;;;4990019;28;19961;-73
2021/11/27 12:29:33;;;;;;;;;;;;;;;;;;4989122;28;19956;-73
2021/11/27 12:31:59;;;;;;;;;;;;;;;;;;4970405;28;20004;-72
2021/11/27 12:34:25;;;;;;;;;;;;;;;;;;4990441;28;19959;-73
2021/11/27 12:36:51;;;;;;;;;;;;;;;;;;4990284;28;19961;-72
2021/11/27 12:39:17;;;;;;;;;;;;;;;;;;4972404;28;19961;-72
2021/11/27 12:41:43;;;;;;;;;;;;;;;;;;4985081;28;20008;-72
2021/11/27 12:44:09;;;;;;;;;;;;;;;;;;4971615;28;20428;-71
2021/11/27 12:46:35;;;;;;;;;;;;;;;;;;4987603;28;19920;-72
2021/11/27 12:49:01;;;;;;;;;;;;;;;;;;4988024;28;20013;-74
2021/11/27 12:51:27;;;;;;;;;;;;;;;;;;4990670;28;19957;-71
2021/11/27 12:53:53;;;;;;;;;;;;;;;;;;4987045;28;19961;-71
2021/11/27 12:56:19;;;;;;;;;;;;;;;;;;4990788;28;20372;-70
2021/11/27 12:58:45;;;;;;;;;;;;;;;;;;4978650;28;20416;-70
2021/11/27 13:01:11;;;;;;;;;;;;;;;;;;4991851;28;19969;-70
2021/11/27 13:03:36;;;;;;;;;;;;;;;;;;4994253;28;19914;-71
2021/11/27 13:06:02;;;;;;;;;;;;;;;;;;4975713;28;19964;-70
2021/11/27 13:08:28;;;;;;;;;;;;;;;;;;4998121;28;19942;-70
2021/11/27 13:10:54;;;;;;;;;;;;;;;;;;4990239;28;20016;-70
2021/11/27 13:13:22;;;;;;;;;;;;;;;;;;4990702;28;19928;-70
2021/11/27 13:15:48;;;;;;;;;;;;;;;;;;4994308;28;19963;-71
2021/11/27 13:18:14;;;;;;;;;;;;;;;;;;4991130;28;20270;-70
2021/11/27 13:20:40;;;;;;;;;;;;;;;;;;4987975;28;19926;-70
2021/11/27 13:23:06;;;;;;;;;;;;;;;;;;4989731;28;20011;-70
2021/11/27 13:25:32;;;;;;;;;;;;;;;;;;4991490;28;19964;-71
2021/11/27 13:27:58;;;;;;;;;;;;;;;;;;4989095;28;19992;-70
2021/11/27 13:30:24;;;;;;;;;;;;;;;;;;4984877;28;19957;-70
2021/11/27 13:32:50;;;;;;;;;;;;;;;;;;4993634;28;19914;-69
2021/11/27 13:35:16;;;;;;;;;;;;;;;;;;4991092;28;19964;-69
2021/11/27 13:37:42;;;;;;;;;;;;;;;;;;4970458;28;20003;-70
2021/11/27 13:40:08;;;;;;;;;;;;;;;;;;4992542;28;20319;-69
2021/11/27 13:42:34;;;;;;;;;;;;;;;;;;4989449;28;20405;-69
2021/11/27 13:45:04;;;;;;;;;;;;;;;;;;4994707;28;20418;-69
2021/11/27 13:47:30;;;;;;;;;;;;;;;;;;4988903;28;19921;-70
2021/11/27 13:50:02;;;;;;;;;;;;;;;;;;4988040;28;19913;-70
2021/11/27 13:52:31;;;;;;;;;;;;;;;;;;4991405;28;19914;-70
2021/11/27 13:54:57;;;;;;;;;;;;;;;;;;4972982;28;19929;-69
2021/11/27 13:57:23;;;;;;;;;;;;;;;;;;4988639;28;19964;-69
2021/11/27 13:59:49;;;;;;;;;;;;;;;;;;4987351;28;19960;-70
2021/11/27 14:02:15;;;;;;;;;;;;;;;;;;4984866;28;20072;-70
2021/11/27 14:04:41;;;;;;;;;;;;;;;;;;4973968;28;20031;-71
2021/11/27 14:07:07;;;;;;;;;;;;;;;;;;4983168;28;19960;-70
2021/11/27 14:09:32;;;;;;;;;;;;;;;;;;4986785;28;20180;-70
2021/11/27 14:11:59;;;;;;;;;;;;;;;;;;4984407;28;20389;-70
2021/11/27 14:14:24;;;;;;;;;;;;;;;;;;4983432;28;19961;-71
2021/11/27 14:16:50;;;;;;;;;;;;;;;;;;4987664;28;19964;-70
2021/11/27 14:19:25;;;;;;;;;;;;;;;;;;4986089;23;19961;-70
2021/11/27 14:21:51;;;;;;;;;;;;;;;;;;5076095;23;20139;-69
2021/11/27 14:24:17;;;;;;;;;;;;;;;;;;4983725;28;19922;-70
2021/11/27 14:26:43;;;;;;;;;;;;;;;;;;4984295;28;19920;-69
2021/11/27 14:29:09;;;;;;;;;;;;;;;;;;4964905;28;19920;-70
2021/11/27 14:31:35;;;;;;;;;;;;;;;;;;4968131;28;20005;-70
2021/11/27 14:34:01;;;;;;;;;;;;;;;;;;4983859;28;20023;-70
2021/11/27 14:36:29;;;;;;;;;;;;;;;;;;4982904;28;19970;-69
2021/11/27 14:38:55;;;;;;;;;;;;;;;;;;4964258;28;19913;-70
2021/11/27 14:41:21;;;;;;;;;;;;;;;;;;4965682;28;20420;-70
2021/11/27 14:43:47;;;;;;;;;;;;;;;;;;4982119;28;19922;-69
2021/11/27 14:46:13;;;;;;;;;;;;;;;;;;4993505;23;20013;-70
2021/11/27 14:48:39;;;;;;;;;;;;;;;;;;4962188;28;19956;-70
2021/11/27 14:51:05;;;;;;;;;;;;;;;;;;4962697;28;20008;-70
2021/11/27 14:53:31;;;;;;;;;;;;;;;;;;4984872;28;20027;-70
2021/11/27 14:55:57;;;;;;;;;;;;;;;;;;4979777;28;19949;-70
2021/11/27 14:58:23;;;;;;;;;;;;;;;;;;4961313;28;20008;-70
2021/11/27 15:00:49;;;;;;;;;;;;;;;;;;4986789;28;20404;-70
2021/11/27 15:03:15;;;;;;;;;;;;;;;;;;4984061;28;20051;-70
2021/11/27 15:05:40;;;;;;;;;;;;;;;;;;4983248;28;20235;-70
2021/11/27 15:08:06;;;;;;;;;;;;;;;;;;4963362;28;19968;-70
2021/11/27 15:10:32;;;;;;;;;;;;;;;;;;4981713;28;19980;-70
2021/11/27 15:12:58;;;;;;;;;;;;;;;;;;4961502;28;19966;-70
2021/11/27 15:15:24;;;;;;;;;;;;;;;;;;4985644;28;19988;-69
2021/11/27 15:17:50;;;;;;;;;;;;;;;;;;4958111;28;19942;-70
2021/11/27 15:20:18;;;;;;;;;;;;;;;;;;4983184;28;19961;-70
2021/11/27 15:22:44;;;;;;;;;;;;;;;;;;4978828;28;19918;-70
2021/11/27 15:25:10;;;;;;;;;;;;;;;;;;4986314;28;19964;-70
2021/11/27 15:27:36;;;;;;;;;;;;;;;;;;4964325;28;20010;-70
2021/11/27 15:30:02;;;;;;;;;;;;;;;;;;4980546;28;20013;-70
2021/11/27 15:32:28;;;;;;;;;;;;;;;;;;4964131;28;20068;-70
2021/11/27 15:34:54;;;;;;;;;;;;;;;;;;4985730;28;19920;-69
2021/11/27 15:37:20;;;;;;;;;;;;;;;;;;4986736;28;19965;-70
2021/11/27 15:39:46;;;;;;;;;;;;;;;;;;4965255;28;19918;-70
2021/11/27 15:42:12;;;;;;;;;;;;;;;;;;4982899;28;20080;-70
2021/11/27 15:44:38;;;;;;;;;;;;;;;;;;4964498;28;19958;-70
2021/11/27 15:47:04;;;;;;;;;;;;;;;;;;4962510;28;20391;-70
2021/11/27 15:49:30;;;;;;;;;;;;;;;;;;4957632;28;20348;-70
2021/11/27 15:51:56;;;;;;;;;;;;;;;;;;4960373;28;19914;-70
2021/11/27 15:54:22;;;;;;;;;;;;;;;;;;4964294;28;20002;-70
2021/11/27 15:56:48;;;;;;;;;;;;;;;;;;4963752;28;20017;-70
2021/11/27 15:59:16;;;;;;;;;;;;;;;;;;4960123;28;19924;-70
2021/11/27 16:01:45;;;;;;;;;;;;;;;;;;4962623;28;19925;-70
2021/11/27 16:04:11;;;;;;;;;;;;;;;;;;4962046;28;20675;-70
2021/11/27 16:06:37;;;;;;;;;;;;;;;;;;4964717;28;19972;-70
2021/11/27 16:09:03;;;;;;;;;;;;;;;;;;4963092;28;19965;-70
2021/11/27 16:11:29;;;;;;;;;;;;;;;;;;4959749;28;19922;-70
2021/11/27 16:13:55;;;;;;;199.50;106.90;;;;;;;;;;4961274;28;20180;-69
2021/11/27 16:16:21;;;;;;;249.57;215.70;;;;;;;;;;4962961;28;20100;-69
2021/11/27 16:18:47;;;;;;;;;;;;;;;;;;4961832;28;20062;-69
2021/11/27 16:21:13;;;;;;;758.15;543.25;;;;;;;;;;4956739;28;20464;-69
2021/11/27 16:23:39;;;;;;;732.70;458.80;;;;;;;;;;4965504;28;20060;-69
2021/11/27 16:26:05;;;;;;;719.33;412.33;;;;;;;;;;4966858;28;20043;-70
2021/11/27 16:28:31;;;;;;;;;;;;;;;;;;4962777;28;20030;-69
2021/11/27 16:30:57;;;;;;;715.85;421.25;;;;;;;;;;4965578;28;19914;-69
2021/11/27 16:33:23;;;;;;;678.10;370.05;;;;;;;;;;4967407;28;20030;-69